Portada
METAR-TAF:

METAR-TAF

Aeropuertos :

Bou Saâda, Argelia

latitud: 35-20N, longitud: 004-12E, altitud: 461 m

Observación

El informe se hizo hace 14 minutos, a las 13:00 UTC
Viento 3 kt del este-noreste
Temperatura 12°C
Humedad 47%
Presión 1028 hPa
Visibilidad 10 km o más
Nubes dispersas a una altura de 2600 ft
Nubes dispersas a una altura de 3000 ft

METAR: DAAD 031300Z 07003KT 9999 SCT026 SCT030 12/01 Q1028

Hora: 14:14 (13:14 UTC)

Pronóstico

El informe se hizo hace 2 horas y 14 minutos, a las 11:00 UTC
Pronóstico válido del 03 a las 12 UTC al 03 a las 21 UTC
Viento 2 kt con dirección variable
Visibilidad 10 km o más
Escasas nubes a una altura de 2600 ft
Nubes dispersas a una altura de 10000 ft

TAF: DAAD 031100Z 0312/0321 VRB02KT 9999 FEW026 SCT100

Observaciones y pronósticos meteorológicos de más de 4000 aeropuertos (mensajes METAR y TAF).

Los puntos amarillos y rojos representan las estaciones disponibles.

Ponga el ratón en el punto deseado para ver el nombre de la estación.

Haga clic para ver las observaciones y los pronósticos meteorológicos.

Para cambiar el mapa : haga clic en los botones verdes con una cruz de color negro para hacer un zoom, en el botón verde con un guión para alejar o en las flechas verdes para mapas adyacentes.


METAR-TAF: